Time;durP1;ratioP1;P1;durP2;ratioP2;P2;SDS_P1;SDS_P2;PMS_P1;PMS_P2;Temp;Humidity;BMP_temperature;BMP_pressure;BME280_temperature;BME280_humidity;BME280_pressure;Samples;Min_cycle;Max_cycle;Signal;HPM_P1;HPM_P2
2021/09/15 00:02:00;;;;;;;7.90;7.20;;;19.30;72.40;;;18.34;75.25;97766.28;5075591;28;20509;-78
2021/09/15 00:04:30;;;;;;;8.77;7.97;;;19.30;72.80;;;18.43;74.86;97791.16;5074942;28;20990;-78
2021/09/15 00:06:58;;;;;;;9.30;7.90;;;19.30;72.80;;;18.40;75.47;97792.50;5090787;28;20458;-78
2021/09/15 00:09:25;;;;;;;8.43;7.77;;;19.20;72.80;;;18.35;75.51;97784.31;5092556;28;20486;-78
2021/09/15 00:11:54;;;;;;;8.23;7.63;;;19.20;72.80;;;18.38;75.72;97789.25;5087806;28;20457;-80
2021/09/15 00:14:22;;;;;;;7.87;7.20;;;19.20;73.00;;;18.41;75.42;97791.41;5088493;28;20468;-78
2021/09/15 00:16:51;;;;;;;7.70;7.20;;;19.20;72.90;;;18.40;75.18;97791.72;5086583;28;20499;-78
2021/09/15 00:19:18;;;;;;;8.57;7.90;;;19.20;72.90;;;18.39;75.48;97785.41;5073703;28;20463;-80
2021/09/15 00:21:45;;;;;;;7.60;7.00;;;19.20;72.80;;;18.28;75.55;97778.31;5081288;28;20591;-78
2021/09/15 00:24:12;;;;;;;8.40;7.70;;;19.20;72.90;;;18.30;75.32;97778.84;5064575;28;20448;-79
2021/09/15 00:26:39;;;;;;;10.10;8.07;;;19.20;72.70;;;18.30;75.44;97787.06;5093173;28;20517;-79
2021/09/15 00:29:08;;;;;;;8.80;8.00;;;19.10;72.70;;;18.29;75.95;97793.63;5085244;28;20982;-79
2021/09/15 00:31:35;;;;;;;8.00;7.30;;;19.10;72.90;;;18.27;75.87;97787.56;5091248;28;20451;-79
2021/09/15 00:34:02;;;;;;;8.23;7.63;;;19.10;72.90;;;18.26;76.16;97786.78;5090592;28;20463;-78
2021/09/15 00:36:29;;;;;;;8.30;7.70;;;19.10;73.10;;;18.24;75.57;97790.88;5075772;28;20448;-79
2021/09/15 00:38:59;;;;;;;8.50;7.50;;;19.10;72.80;;;18.22;75.81;97787.59;5072159;28;20480;-78
2021/09/15 00:41:26;;;;;;;8.20;7.50;;;19.10;72.80;;;18.19;75.84;97790.88;5089601;28;20544;-78
2021/09/15 00:43:59;;;;;;;8.00;7.30;;;19.10;72.90;;;18.21;76.39;97788.69;5068457;28;20460;-81
2021/09/15 00:46:28;;;;;;;7.47;6.90;;;19.10;73.20;;;18.24;76.54;97779.94;5073822;28;20546;-81
2021/09/15 00:48:55;;;;;;;7.93;7.33;;;19.10;73.60;;;18.27;76.91;97788.41;5075368;28;20471;-79
2021/09/15 00:51:22;;;;;;;8.30;7.70;;;19.10;73.70;;;18.29;77.43;97784.59;5071454;28;20482;-79
2021/09/15 00:53:49;;;;;;;8.40;7.80;;;19.10;74.20;;;18.27;76.64;97788.41;5077580;28;20478;-78
2021/09/15 00:56:17;;;;;;;7.57;6.97;;;19.10;73.70;;;18.26;76.49;97780.47;5068865;28;20486;-78
2021/09/15 00:58:44;;;;;;;8.73;7.67;;;19.10;73.50;;;18.21;76.32;97777.75;5056329;28;20494;-78
2021/09/15 01:01:11;;;;;;;9.00;8.20;;;19.10;73.40;;;18.22;76.91;97773.91;5071695;28;20463;-78
2021/09/15 01:03:40;;;;;;;8.77;7.97;;;19.10;73.90;;;18.26;77.29;97769.53;5088472;28;20540;-78
2021/09/15 01:06:11;;;;;;;8.43;7.83;;;19.10;74.10;;;18.25;76.89;97773.34;5090413;28;20483;-77
2021/09/15 01:08:38;;;;;;;7.90;7.30;;;19.10;73.80;;;18.24;76.71;97769.81;5089828;28;20977;-78
2021/09/15 01:11:06;;;;;;;8.90;8.23;;;19.10;73.90;;;18.28;76.89;97772.84;5093319;28;20452;-78
2021/09/15 01:13:34;;;;;;;8.20;7.60;;;19.10;73.90;;;18.29;76.77;97765.44;5091080;28;20500;-78
2021/09/15 01:16:02;;;;;;;8.97;8.23;;;19.10;74.00;;;18.33;77.25;97772.84;5071593;28;20463;-77
2021/09/15 01:18:32;;;;;;;8.30;7.60;;;19.10;74.10;;;18.32;76.66;97763.00;5068873;28;20963;-80
2021/09/15 01:21:01;;;;;;;8.43;7.83;;;19.20;73.90;;;18.29;76.90;97754.50;5092897;28;20459;-79
2021/09/15 01:23:29;;;;;;;8.03;7.33;;;19.20;74.10;;;18.33;76.61;97770.09;5087526;28;20448;-79
2021/09/15 01:25:59;;;;;;;7.70;7.17;;;19.20;74.00;;;18.33;76.58;97767.38;5092856;28;20468;-79
2021/09/15 01:28:26;;;;;;;8.83;8.13;;;19.20;73.80;;;18.35;76.09;97765.19;5089949;28;20444;-82
2021/09/15 01:30:54;;;;;;;8.80;8.20;;;19.20;73.80;;;18.32;76.43;97762.16;5089460;28;20460;-78
2021/09/15 01:33:21;;;;;;;8.90;8.10;;;19.20;73.70;;;18.32;76.51;97771.19;5092542;28;20514;-84
2021/09/15 01:35:48;;;;;;;8.47;7.60;;;19.20;73.80;;;18.25;76.56;97762.41;5107241;27;20463;-81
2021/09/15 01:38:17;;;;;;;8.50;7.70;;;19.10;73.50;;;18.22;77.01;97757.50;5117680;27;20497;-81
2021/09/15 01:40:44;;;;;;;8.67;7.97;;;19.10;73.80;;;18.27;76.53;97768.44;5118113;27;20466;-81
2021/09/15 01:43:11;;;;;;;9.17;8.40;;;19.10;73.60;;;18.17;77.16;97754.78;5101139;27;20452;-80
2021/09/15 01:45:39;;;;;;;11.30;8.87;;;19.10;74.20;;;18.18;76.97;97762.69;5092500;28;20461;-80
2021/09/15 01:48:06;;;;;;;9.40;8.20;;;19.10;73.70;;;18.14;76.64;97758.06;5094428;28;20455;-79
2021/09/15 01:50:33;;;;;;;8.33;7.60;;;19.00;73.60;;;18.08;77.04;97744.38;5082171;28;20472;-78
2021/09/15 01:53:00;;;;;;;9.03;8.33;;;19.00;73.80;;;18.06;77.36;97749.28;5074689;28;20440;-81
2021/09/15 01:55:32;;;;;;;9.37;8.47;;;18.90;73.80;;;17.99;77.17;97726.84;5075952;28;20459;-80
2021/09/15 01:58:00;;;;;;;8.33;7.63;;;18.90;74.10;;;18.12;77.72;97748.22;5096087;28;20451;-82
2021/09/15 02:00:27;;;;;;;8.70;7.90;;;18.90;74.20;;;18.09;77.50;97742.47;5043145;28;20508;-82
2021/09/15 02:02:55;;;;;;;8.70;7.87;;;18.90;74.00;;;18.06;78.00;97737.53;5092278;28;20456;-81
2021/09/15 02:05:22;;;;;;;9.50;8.77;;;18.90;74.30;;;18.05;77.52;97730.44;5070034;28;20973;-81
2021/09/15 02:07:49;;;;;;;9.60;8.77;;;18.90;74.00;;;18.01;77.64;97730.13;5075247;28;20473;-80
2021/09/15 02:10:17;;;;;;;9.07;8.37;;;18.90;74.20;;;18.00;78.40;97723.03;5079737;28;20466;-81
2021/09/15 02:12:48;;;;;;;8.83;8.13;;;18.90;74.60;;;18.05;77.88;97723.03;5072648;28;20517;-81
2021/09/15 02:15:16;;;;;;;8.97;8.13;;;18.90;74.30;;;18.15;77.35;97724.16;5077294;28;20464;-80
2021/09/15 02:17:43;;;;;;;9.60;8.80;;;18.90;74.20;;;18.12;78.08;97726.34;5064490;28;20565;-82
2021/09/15 02:20:14;;;;;;;9.63;8.80;;;19.00;74.70;;;17.80;77.32;97669.97;5077451;28;20493;-81
2021/09/15 02:22:42;;;;;;;9.70;8.73;;;18.90;74.10;;;18.02;78.17;97712.66;5100221;28;22374;-85
2021/09/15 02:25:11;;;;;;;9.70;8.90;;;18.90;74.60;;;18.03;78.60;97721.66;5079750;28;20528;-80
2021/09/15 02:27:40;;;;;;;8.80;8.00;;;18.90;74.90;;;18.05;77.88;97723.03;5077108;28;20543;-80
2021/09/15 02:30:13;;;;;;;9.53;8.70;;;18.90;74.70;;;18.07;78.41;97731.78;5064951;28;20487;-81
2021/09/15 02:32:40;;;;;;;9.07;8.23;;;18.90;74.90;;;17.98;77.44;97714.28;5074518;28;20535;-80
2021/09/15 02:35:10;;;;;;;9.90;9.00;;;18.90;74.20;;;18.02;78.08;97723.59;5092530;28;20460;-81
2021/09/15 02:37:38;;;;;;;9.13;8.30;;;18.90;74.60;;;17.94;78.38;97719.44;5075565;28;20472;-83
2021/09/15 02:40:08;;;;;;;9.30;8.60;;;18.90;74.80;;;17.94;78.47;97714.00;5055780;28;20449;-83
2021/09/15 02:42:36;;;;;;;9.00;8.30;;;18.90;74.90;;;18.01;78.56;97727.41;5094724;28;20452;-82
2021/09/15 02:45:12;;;;;;;9.57;8.70;;;18.90;75.00;;;17.99;78.37;97726.84;5090889;28;20460;-81
2021/09/15 02:47:40;;;;;;;10.53;9.17;;;18.90;74.80;;;18.00;77.70;97733.94;5060349;28;21294;-81
2021/09/15 02:50:09;;;;;;;8.70;7.80;;;18.90;74.50;;;17.97;77.56;97729.84;5061154;28;20440;-82
2021/09/15 02:52:38;;;;;;;9.57;8.60;;;18.80;74.30;;;17.80;77.88;97697.28;5097919;28;20490;-84
2021/09/15 02:55:07;;;;;;;9.37;8.47;;;18.80;74.40;;;18.00;77.74;97725.75;5098165;28;20456;-81
2021/09/15 02:57:34;;;;;;;8.70;7.93;;;18.80;74.50;;;17.95;78.32;97725.72;5071146;28;20530;-82
2021/09/15 03:00:02;;;;;;;9.80;9.00;;;18.80;74.60;;;17.79;78.08;97712.03;5061812;28;20803;-82
2021/09/15 03:02:31;;;;;;;8.83;8.00;;;18.80;74.60;;;17.80;78.52;97721.88;5100897;28;20502;-83
2021/09/15 03:04:58;;;;;;;9.53;8.60;;;18.70;74.70;;;17.75;78.48;97716.41;5103861;28;20539;-85
2021/09/15 03:07:27;;;;;;;9.77;8.77;;;18.60;74.50;;;17.57;78.71;97701.31;5071146;28;20467;-81
2021/09/15 03:09:59;;;;;;;9.73;8.93;;;18.60;74.70;;;17.64;79.16;97704.63;5087143;28;20961;-83
2021/09/15 03:12:26;;;;;;;10.20;9.40;;;18.50;74.90;;;17.53;79.11;97690.16;5083634;28;20528;-82
2021/09/15 03:14:53;;;;;;;9.57;8.77;;;18.50;75.00;;;17.59;79.18;97690.16;5087377;28;20476;-83
2021/09/15 03:17:21;;;;;;;9.80;9.00;;;18.50;75.20;;;17.62;79.15;97695.06;5081198;28;20505;-83
2021/09/15 03:19:51;;;;;;;11.27;9.03;;;18.50;75.30;;;17.61;79.23;97690.69;5095042;28;20469;-83
2021/09/15 03:22:18;;;;;;;10.37;9.37;;;18.50;75.30;;;17.59;79.25;97679.22;5081892;28;20452;-83
2021/09/15 03:24:45;;;;;;;9.67;8.70;;;18.50;75.20;;;17.62;79.40;97684.97;5094794;28;21005;-83
2021/09/15 03:27:13;;;;;;;9.43;8.40;;;18.50;75.50;;;17.63;80.49;97685.78;5098522;28;20986;-83
2021/09/15 03:29:43;;;;;;;9.43;8.63;;;18.50;76.40;;;17.64;79.66;97690.16;5100342;28;20736;-82
2021/09/15 03:32:10;;;;;;;10.30;8.10;;;18.50;75.90;;;17.60;79.52;97689.88;5081549;28;21051;-83
2021/09/15 03:34:38;;;;;;;9.50;8.70;;;18.50;75.90;;;17.49;79.49;97680.03;5045923;28;20463;-82
2021/09/15 03:37:07;;;;;;;10.40;9.40;;;18.50;75.70;;;17.60;79.51;97691.78;5096078;28;20480;-83
2021/09/15 03:39:39;;;;;;;8.90;8.00;;;18.50;75.80;;;17.57;79.38;97682.22;5071082;28;20520;-81
2021/09/15 03:42:12;;;;;;;10.53;9.40;;;18.40;75.60;;;17.60;79.49;97686.31;5077190;28;20482;-82
2021/09/15 03:44:40;;;;;;;9.87;8.97;;;18.50;75.80;;;17.62;80.58;97684.13;5079602;28;21307;-81
2021/09/15 03:47:11;;;;;;;9.80;8.80;;;18.50;76.80;;;17.60;80.77;97672.66;5064723;28;20469;-81
2021/09/15 03:49:38;;;;;;;9.00;8.20;;;18.50;77.00;;;17.71;80.16;97679.81;5078228;28;20448;-84
2021/09/15 03:52:07;;;;;;;9.30;8.40;;;18.50;76.80;;;17.65;80.26;97667.19;5085844;28;20439;-82
2021/09/15 03:54:35;;;;;;;9.93;8.97;;;18.60;76.70;;;17.73;79.78;97674.88;5079604;28;20790;-82
2021/09/15 03:57:03;;;;;;;10.23;9.20;;;18.60;76.60;;;17.77;79.83;97670.50;5094804;28;20479;-81
2021/09/15 03:59:32;;;;;;;9.57;8.67;;;18.60;76.50;;;17.70;80.36;97675.44;5095346;28;20486;-82
2021/09/15 04:01:59;;;;;;;8.60;7.90;;;18.60;76.80;;;17.70;80.41;97675.44;5093499;28;20482;-82
2021/09/15 04:04:27;;;;;;;8.37;7.67;;;18.60;76.80;;;17.68;80.17;97669.41;5074513;28;20463;-83
2021/09/15 04:06:55;;;;;;;8.40;7.70;;;18.60;76.80;;;17.61;80.79;97660.66;5097176;28;20495;-82
2021/09/15 04:09:24;;;;;;;9.40;8.60;;;18.50;76.70;;;17.67;80.09;97678.72;5102734;28;20483;-83
2021/09/15 04:11:51;;;;;;;9.80;8.90;;;18.60;76.70;;;17.66;80.03;97674.31;5069936;28;20459;-82
2021/09/15 04:14:19;;;;;;;9.90;7.90;;;18.50;76.50;;;17.68;79.79;97674.88;5092632;28;20543;-81
2021/09/15 04:16:47;;;;;;;9.50;8.70;;;18.60;76.70;;;17.56;79.76;97656.81;5098420;28;20544;-82
2021/09/15 04:19:14;;;;;;;9.50;8.53;;;18.60;76.70;;;17.68;80.02;97672.94;5093938;28;21225;-82
2021/09/15 04:21:43;;;;;;;9.90;9.00;;;18.60;76.80;;;17.64;79.91;97647.28;5060342;28;20463;-84
2021/09/15 04:32:28;;;;;;;9.27;8.37;;;18.60;76.50;;;17.72;80.03;97673.25;5060542;28;20530;-82
2021/09/15 04:34:55;;;;;;;10.03;9.20;;;18.60;76.70;;;17.71;80.25;97674.34;5090283;28;20481;-83
2021/09/15 04:37:23;;;;;;;8.90;8.20;;;18.60;76.80;;;17.73;80.08;97674.88;5093283;28;20495;-82
2021/09/15 04:39:50;;;;;;;9.40;8.50;;;18.60;76.80;;;17.72;80.10;97673.25;5083106;28;20986;-84
2021/09/15 04:42:18;;;;;;;9.77;9.00;;;18.60;76.90;;;17.75;79.92;97671.88;5078112;28;20455;-83
2021/09/15 04:44:46;;;;;;;9.77;8.97;;;18.60;76.80;;;17.67;80.08;97668.59;5085191;28;20547;-83
2021/09/15 04:47:13;;;;;;;11.60;10.57;;;18.60;76.80;;;17.70;79.61;97661.78;5080776;28;21043;-82
2021/09/15 04:49:41;;;;;;;10.40;9.30;;;18.60;77.00;;;17.73;79.69;97653.03;5090408;28;20467;-82
2021/09/15 04:52:08;;;;;;;10.13;9.23;;;18.60;76.50;;;17.75;79.74;97672.69;5063072;28;20444;-82
2021/09/15 04:54:35;;;;;;;9.97;9.17;;;18.60;76.60;;;17.51;79.87;97624.03;5097980;28;20494;-82
2021/09/15 04:57:03;;;;;;;9.90;9.00;;;18.60;76.90;;;17.78;79.55;97677.59;5082908;28;20464;-81
2021/09/15 04:59:36;;;;;;;11.63;9.10;;;18.60;76.60;;;17.73;80.13;97669.41;5066548;28;20471;-83
2021/09/15 05:02:06;;;;;;;10.47;9.57;;;18.60;76.80;;;17.72;80.07;97662.31;5086393;28;20452;-83
2021/09/15 05:04:33;;;;;;;10.57;9.40;;;18.60;77.00;;;17.78;80.13;97677.59;5082333;28;20468;-82
2021/09/15 05:07:04;;;;;;;10.63;9.73;;;18.60;77.00;;;17.72;80.28;97669.69;5096544;28;20467;-83
2021/09/15 05:09:31;;;;;;;9.93;9.03;;;18.60;77.00;;;17.60;79.46;97639.88;5095755;28;20486;-84
2021/09/15 05:12:02;;;;;;;11.93;10.80;;;18.60;76.70;;;17.64;79.55;97649.19;5091183;27;20467;-84
2021/09/15 05:14:34;;;;;;;14.70;10.30;;;18.60;76.70;;;17.87;79.64;97679.81;5097765;27;20485;-84
2021/09/15 05:17:02;;;;;;;9.77;8.67;;;18.70;76.80;;;18.45;79.32;97656.88;5099247;27;20452;-86
2021/09/15 05:19:30;;;;;;;9.17;8.27;;;18.80;78.40;;;19.40;74.71;97674.38;5094789;27;20447;-83
2021/09/15 05:21:57;;;;;;;8.87;8.07;;;19.40;77.40;;;20.32;70.60;97673.22;5105019;27;20455;-85
2021/09/15 05:24:26;;;;;;;8.50;7.70;;;20.10;75.40;;;21.14;67.03;97676.28;5078384;28;20457;-84
2021/09/15 05:26:54;;;;;;;10.07;7.50;;;20.90;72.90;;;21.58;64.73;97671.56;5078083;28;20548;-84
2021/09/15 05:29:23;;;;;;;8.53;7.70;;;21.50;70.90;;;21.83;63.49;97675.91;5054659;28;20453;-84
2021/09/15 05:31:54;;;;;;;8.13;7.33;;;22.00;69.50;;;21.78;63.68;97685.06;5092031;28;20492;-84
2021/09/15 05:34:24;;;;;;;8.90;8.07;;;22.20;68.50;;;21.79;63.64;97685.88;5053080;28;20449;-84
2021/09/15 05:36:52;;;;;;;8.03;7.33;;;22.30;67.80;;;21.71;63.52;97670.88;5075465;28;20459;-84
2021/09/15 05:39:19;;;;;;;8.27;7.47;;;22.30;67.50;;;21.91;63.00;97677.16;5056918;28;20482;-84
2021/09/15 05:41:51;;;;;;;10.20;9.20;;;22.40;67.30;;;21.50;63.02;97678.56;5077542;28;20456;-86
2021/09/15 05:44:20;;;;;;;10.37;9.33;;;22.30;65.90;;;21.01;64.35;97694.28;5078572;28;20455;-85
2021/09/15 05:49:34;;;;;;;11.07;10.10;;;21.70;66.10;;;20.27;66.85;97698.81;5061363;28;20929;-84
2021/09/15 05:52:06;;;;;;;11.43;10.37;;;21.30;66.60;;;20.06;68.00;97704.44;5075130;28;20463;-84
2021/09/15 05:54:33;;;;;;;12.67;10.77;;;21.10;67.10;;;19.81;68.39;97675.25;5076597;28;20811;-87
2021/09/15 05:57:01;;;;;;;11.07;10.17;;;20.90;67.60;;;19.90;68.49;97706.44;5101535;28;20487;-85
2021/09/15 05:59:49;;;;;;;10.60;9.60;;;20.80;67.80;;;19.87;68.68;97714.41;5084522;28;20507;-86
2021/09/15 06:02:24;;;;;;;10.63;9.60;;;20.70;67.90;;;19.86;69.10;97710.84;5071493;28;20465;-85
2021/09/15 06:04:53;;;;;;;10.67;9.57;;;20.70;68.20;;;19.58;69.21;97671.28;5072671;28;20463;-84
2021/09/15 06:07:21;;;;;;;10.17;9.27;;;20.60;68.10;;;19.87;69.35;97706.19;5074667;28;20475;-86
2021/09/15 06:09:49;;;;;;;9.87;8.97;;;20.60;68.40;;;20.02;68.98;97708.84;5073673;28;20456;-85
2021/09/15 06:12:16;;;;;;;11.00;9.93;;;20.70;68.70;;;19.99;69.64;97708.59;5078727;28;20486;-82
2021/09/15 06:14:43;;;;;;;12.40;11.20;;;20.70;68.90;;;19.95;70.08;97702.88;5065995;28;20495;-83
2021/09/15 06:17:11;;;;;;;40.70;26.13;;;20.80;69.20;;;19.71;70.65;97678.88;5073725;28;20461;-85
2021/09/15 06:19:40;;;;;;;78.37;55.30;;;20.70;69.40;;;19.78;70.78;97682.09;5095305;28;20463;-86
2021/09/15 06:22:08;;;;;;;13.27;12.07;;;20.70;69.70;;;19.96;71.00;97708.06;5090453;28;20507;-85
2021/09/15 06:24:35;;;;;;;14.00;10.80;;;20.80;69.90;;;19.90;71.91;97708.34;5089705;28;20444;-85
2021/09/15 06:27:03;;;;;;;14.13;12.40;;;20.80;70.30;;;19.90;72.06;97711.91;5053198;28;20793;-86
2021/09/15 06:29:30;;;;;;;13.10;11.90;;;20.70;70.50;;;19.70;72.28;97673.66;5067933;28;20452;-87
2021/09/15 06:31:58;;;;;;;14.60;13.20;;;20.70;70.40;;;19.58;72.83;97660.31;5075571;28;20478;-87
2021/09/15 06:34:31;;;;;;;12.47;11.30;;;20.70;70.90;;;19.85;72.93;97700.16;5092354;28;20453;-84
2021/09/15 06:37:01;;;;;;;21.37;16.30;;;20.60;70.90;;;19.95;71.94;97697.41;5095834;28;20463;-82
2021/09/15 06:39:30;;;;;;;11.80;10.57;;;20.70;70.70;;;20.05;71.52;97712.97;5091675;28;20452;-83
2021/09/15 06:42:00;;;;;;;15.27;13.13;;;20.80;70.70;;;20.08;71.30;97696.72;5092859;28;20551;-80
2021/09/15 06:44:27;;;;;;;15.83;14.23;;;20.90;70.50;;;20.29;70.34;97704.81;5082647;28;20451;-84
2021/09/15 06:46:56;;;;;;;13.20;12.07;;;21.00;70.30;;;20.50;70.07;97701.88;5102705;28;20530;-83
2021/09/15 06:49:28;;;;;;;15.03;13.77;;;21.20;70.20;;;20.72;69.11;97703.34;5101109;28;20460;-85
2021/09/15 06:51:57;;;;;;;13.27;12.17;;;21.40;70.40;;;20.83;68.58;97698.59;5098416;28;20460;-85
2021/09/15 06:54:24;;;;;;;12.77;11.67;;;21.50;69.70;;;20.94;68.58;97706.41;5066944;28;20467;-84
2021/09/15 06:56:54;;;;;;;10.23;9.40;;;21.70;69.80;;;21.03;68.60;97709.34;5104805;28;20528;-83
2021/09/15 06:59:25;;;;;;;11.23;10.23;;;21.70;69.50;;;20.93;69.42;97703.97;5086294;28;20455;-81
2021/09/15 07:01:52;;;;;;;11.40;10.40;;;21.70;69.70;;;20.92;68.96;97702.31;5064718;28;20506;-83
2021/09/15 07:04:20;;;;;;;11.35;10.25;;;21.70;69.50;;;20.96;69.31;97697.91;5078194;28;20511;-83
2021/09/15 07:06:47;;;;;;;11.03;10.10;;;21.70;69.80;;;20.73;69.41;97685.75;5081654;28;20459;-85
2021/09/15 07:09:15;;;;;;;11.80;10.80;;;21.60;69.60;;;20.65;69.60;97696.25;5044036;28;20447;-84
2021/09/15 07:11:42;;;;;;;12.20;11.30;;;21.50;69.40;;;20.69;69.43;97681.94;5073766;28;20485;-83
2021/09/15 07:14:12;;;;;;;11.50;10.30;;;21.50;69.60;;;20.49;70.33;97689.28;5082856;28;20761;-83
2021/09/15 07:16:40;;;;;;;11.80;10.60;;;21.40;69.50;;;20.35;70.79;97689.13;5072861;28;20512;-83
2021/09/15 07:19:09;;;;;;;12.23;11.03;;;21.30;69.90;;;20.33;71.32;97691.34;5086017;28;20467;-84
2021/09/15 07:21:36;;;;;;;11.53;10.67;;;21.20;70.00;;;20.19;71.64;97681.03;5101749;28;20485;-83
2021/09/15 07:24:05;;;;;;;11.43;10.43;;;21.20;70.30;;;20.37;71.62;97708.88;5073785;28;20508;-83
2021/09/15 07:26:32;;;;;;;10.80;9.93;;;21.20;70.40;;;20.33;71.76;97711.34;5108007;28;20516;-81
2021/09/15 07:29:02;;;;;;;11.33;10.43;;;21.20;70.60;;;20.26;71.74;97713.63;5086719;28;20467;-83
2021/09/15 07:31:37;;;;;;;11.80;10.70;;;21.10;70.50;;;20.04;72.23;97694.88;5080259;28;20464;-83
2021/09/15 07:34:06;;;;;;;11.70;10.57;;;21.10;70.80;;;20.06;73.17;97712.66;5091200;28;20443;-84
2021/09/15 07:36:36;;;;;;;12.00;11.10;;;20.90;71.20;;;20.05;72.93;97707.47;5095415;28;20482;-84
2021/09/15 07:39:04;;;;;;;13.10;12.10;;;20.90;71.00;;;20.19;73.48;97718.59;5099718;28;20456;-80
2021/09/15 07:41:31;;;;;;;12.40;11.40;;;21.00;71.70;;;20.43;71.78;97713.19;5084734;28;20517;-81
2021/09/15 07:43:58;;;;;;;11.63;10.53;;;21.10;71.20;;;20.66;70.58;97717.09;5083703;28;20458;-79
2021/09/15 07:46:25;;;;;;;10.67;9.80;;;21.30;70.70;;;20.72;70.44;97719.81;5079574;28;20444;-79
2021/09/15 07:48:54;;;;;;;11.60;10.70;;;21.40;70.50;;;21.02;69.52;97728.88;5085305;28;20471;-81
2021/09/15 07:51:22;;;;;;;13.47;11.33;;;21.60;70.30;;;21.28;68.55;97736.81;5100379;28;20518;-81
2021/09/15 07:53:50;;;;;;;12.60;11.40;;;21.80;69.80;;;21.39;68.34;97723.78;5089303;28;20462;-80
2021/09/15 07:56:19;;;;;;;11.20;10.30;;;22.00;69.70;;;21.69;67.12;97746.53;5075127;28;20475;-82
2021/09/15 07:58:46;;;;;;;11.90;10.90;;;22.30;69.70;;;21.87;66.60;97744.88;5095979;28;20568;-80
2021/09/15 08:01:13;;;;;;;10.70;9.60;;;22.50;69.10;;;22.01;65.50;97737.53;5097085;28;20452;-80
2021/09/15 08:03:40;;;;;;;12.37;11.10;;;22.70;68.50;;;22.08;65.09;97753.66;5080699;28;20464;-80
2021/09/15 08:06:11;;;;;;;10.87;9.97;;;22.70;67.90;;;22.19;64.38;97757.91;5075849;28;20456;-80
2021/09/15 08:08:39;;;;;;;11.73;10.73;;;22.80;67.90;;;22.07;64.51;97757.53;5072439;28;20463;-85
2021/09/15 08:11:07;;;;;;;10.73;9.90;;;22.90;67.30;;;22.17;64.48;97756.56;5098473;28;20448;-86
2021/09/15 08:13:36;;;;;;;11.20;10.20;;;22.90;67.30;;;22.29;63.62;97743.16;5099763;28;20471;-85
2021/09/15 08:16:05;;;;;;;11.00;10.10;;;23.00;67.00;;;22.39;64.26;97752.38;5074566;28;20484;-86
2021/09/15 08:18:35;;;;;;;10.20;9.30;;;23.10;67.40;;;22.59;63.63;97765.84;5077523;28;20463;-83
2021/09/15 08:21:06;;;;;;;11.50;10.60;;;23.30;67.20;;;22.62;63.98;97756.16;5080478;28;20475;-85
2021/09/15 08:23:37;;;;;;;10.23;9.53;;;23.40;67.30;;;22.99;63.52;97768.16;5076237;28;20456;-84
2021/09/15 08:26:05;;;;;;;12.33;11.33;;;23.60;67.50;;;23.02;63.66;97745.53;5058486;28;20457;-87
2021/09/15 08:28:36;;;;;;;12.60;11.60;;;23.70;67.80;;;23.17;63.96;97780.25;5061927;28;22174;-85
2021/09/15 08:31:05;;;;;;;10.90;9.90;;;23.80;67.70;;;23.28;63.03;97778.13;5092637;28;20509;-85
2021/09/15 08:33:33;;;;;;;12.33;11.20;;;23.90;67.30;;;23.17;63.74;97768.38;5082488;28;20801;-84
2021/09/15 08:36:00;;;;;;;11.57;10.67;;;23.80;67.50;;;22.99;65.05;97772.88;5067705;28;20452;-84
2021/09/15 08:38:29;;;;;;;13.83;11.13;;;23.80;68.20;;;23.01;64.23;97770.63;5087450;28;20497;-87
2021/09/15 08:41:01;;;;;;;12.70;11.30;;;23.80;67.30;;;23.17;64.57;97777.47;5100279;28;20448;-85
2021/09/15 08:43:36;;;;;;;12.30;11.30;;;23.80;68.00;;;23.19;64.47;97786.25;5060741;28;20793;-85
2021/09/15 08:46:06;;;;;;;13.10;12.00;;;24.00;68.00;;;23.61;63.48;97774.47;5080775;28;20460;-90
2021/09/15 08:48:39;;;;;;;14.20;13.00;;;24.20;67.80;;;23.60;64.56;97768.13;5108192;27;20472;-86
2021/09/15 08:51:13;;;;;;;13.67;12.47;;;24.40;68.10;;;23.70;63.80;97771.81;5074309;28;20465;-85
2021/09/15 08:53:44;;;;;;;12.13;11.13;;;24.40;67.90;;;24.07;62.11;97761.63;5070332;28;20520;-87
2021/09/15 08:56:15;;;;;;;12.23;11.23;;;24.60;67.40;;;24.28;60.85;97759.22;5076163;27;20450;-84
2021/09/15 08:58:48;;;;;;;13.30;12.20;;;24.60;66.60;;;24.62;60.50;97762.56;5101479;28;20448;-89
2021/09/15 09:01:21;;;;;;;12.70;11.30;;;25.00;67.30;;;24.98;59.27;97766.38;5096021;28;20440;-83
2021/09/15 09:03:55;;;;;;;12.17;11.27;;;25.30;66.30;;;25.07;58.79;97766.41;5064654;28;20485;-86
2021/09/15 09:06:25;;;;;;;13.30;12.20;;;25.60;66.00;;;25.12;59.84;97769.88;5070572;28;20460;-85
2021/09/15 09:08:55;;;;;;;12.50;11.27;;;25.70;66.00;;;25.35;59.06;97767.03;5077688;28;20472;-86
2021/09/15 09:11:34;;;;;;;12.83;11.83;;;25.90;65.80;;;25.77;57.49;97765.88;5080759;28;20452;-86
2021/09/15 09:14:09;;;;;;;13.70;12.60;;;26.10;65.30;;;25.72;57.83;97751.06;5092838;28;20460;-86
2021/09/15 09:16:47;;;;;;;11.50;10.60;;;26.30;65.40;;;25.84;57.26;97763.44;5072978;28;20429;-87
2021/09/15 09:19:18;;;;;;;11.10;10.13;;;26.40;65.00;;;26.09;56.28;97749.97;5091135;28;20540;-86
2021/09/15 09:21:50;;;;;;;11.67;10.70;;;26.60;64.80;;;25.57;56.33;97743.22;5065329;28;20539;-86
2021/09/15 09:24:22;;;;;;;11.63;10.73;;;26.50;63.60;;;24.35;60.65;97764.31;5075608;28;20549;-86
2021/09/15 09:26:55;;;;;;;11.93;10.67;;;25.80;63.80;;;24.40;60.76;97761.41;5051526;28;20453;-86
2021/09/15 09:29:25;;;;;;;12.07;11.10;;;25.50;64.50;;;24.28;60.92;97734.38;5074935;28;20476;-86
2021/09/15 09:32:06;;;;;;;11.73;10.83;;;25.30;64.70;;;24.29;61.76;97754.53;5089979;28;20487;-85
2021/09/15 09:35:14;;;;;;;11.87;10.90;;;25.20;65.40;;;23.90;62.40;97754.00;5078820;28;20466;-85
2021/09/15 09:37:42;;;;;;;12.80;11.60;;;24.90;65.20;;;23.20;65.53;97756.75;5094477;28;20459;-85
2021/09/15 09:43:04;;;;;;;11.67;9.93;;;24.10;67.40;;;23.00;66.93;97766.25;5074937;28;20496;-85
2021/09/15 09:45:46;;;;;;;12.33;11.30;;;23.90;68.10;;;23.04;68.00;97767.25;5081469;28;20448;-85
2021/09/15 09:48:33;;;;;;;13.80;12.60;;;24.00;68.20;;;22.38;69.57;97762.56;5095742;28;20472;-83
2021/09/15 09:51:02;;;;;;;13.33;12.33;;;23.70;68.20;;;22.27;69.19;97750.91;5084675;28;20448;-83
2021/09/15 09:56:16;;;;;;;13.43;12.43;;;23.20;69.60;;;22.00;71.28;97755.16;5084968;28;20440;-85
2021/09/15 09:58:50;;;;;;;13.57;12.40;;;23.00;69.60;;;22.26;70.83;97745.69;5050301;28;20962;-84
2021/09/15 10:01:22;;;;;;;12.87;11.87;;;23.10;70.50;;;22.30;72.77;97742.03;5074892;28;20445;-83
2021/09/15 10:03:51;;;;;;;12.87;11.87;;;23.00;71.50;;;21.97;71.25;97725.50;5101235;28;20447;-84
2021/09/15 10:06:19;;;;;;;13.70;12.60;;;22.70;70.60;;;21.68;74.87;97742.94;5095582;28;21570;-83
2021/09/15 10:08:49;;;;;;;13.23;12.13;;;22.50;72.40;;;21.59;76.24;97742.75;5079818;28;20469;-86
2021/09/15 10:11:18;;;;;;;13.43;12.33;;;22.40;73.30;;;21.54;75.50;97739.25;5083083;28;20448;-84
2021/09/15 10:13:52;;;;;;;14.30;12.87;;;22.30;73.60;;;21.54;74.94;97733.75;5071638;28;21030;-83
2021/09/15 10:16:23;;;;;;;12.40;11.40;;;22.30;73.70;;;21.72;73.66;97763.22;5091334;28;20532;-83
2021/09/15 10:19:03;;;;;;;12.80;11.80;;;22.40;72.90;;;21.89;73.32;97745.41;5090846;28;20946;-87
2021/09/15 10:21:36;;;;;;;14.90;13.60;;;22.50;73.00;;;22.30;73.67;97750.28;5086328;28;20552;-85
2021/09/15 10:24:07;;;;;;;14.10;12.90;;;22.70;73.70;;;22.41;71.44;97755.66;5081820;28;20462;-85
2021/09/15 10:26:43;;;;;;;13.20;12.03;;;23.00;72.60;;;22.69;70.88;97761.28;5070924;28;21024;-83
2021/09/15 10:29:28;;;;;;;13.63;12.43;;;23.10;72.50;;;22.66;70.68;97723.31;5097580;28;20475;-84
2021/09/15 10:32:04;;;;;;;14.30;13.03;;;23.20;72.50;;;22.93;71.22;97728.88;5098802;28;20511;-83
2021/09/15 10:34:54;;;;;;;13.97;12.80;;;23.40;73.10;;;23.31;70.90;97735.38;5100679;28;20447;-84
2021/09/15 10:38:12;;;;;;;13.50;12.40;;;23.70;73.30;;;23.02;68.93;97725.44;5062790;28;20849;-86
2021/09/15 10:40:46;;;;;;;14.63;13.23;;;23.50;71.30;;;22.72;69.55;97733.13;5031537;28;20478;-88